createdAt,value
2023-02-11T00:01:37.274Z,1.79
2023-02-11T00:04:06.285Z,1.98
2023-02-11T00:06:35.334Z,2.12
2023-02-11T00:09:02.295Z,2.16
2023-02-11T00:11:32.659Z,2.27
2023-02-11T00:14:03.480Z,2.38
2023-02-11T00:16:31.820Z,2.46
2023-02-11T00:19:02.972Z,2.43
2023-02-11T00:21:29.644Z,2.39
2023-02-11T00:23:58.622Z,2.19
2023-02-11T00:26:33.036Z,2.08
2023-02-11T00:29:00.883Z,2.01
2023-02-11T00:31:28.294Z,2.01
2023-02-11T00:33:55.353Z,1.89
2023-02-11T00:36:25.914Z,1.90
2023-02-11T00:38:54.660Z,1.93
2023-02-11T00:41:22.808Z,1.90
2023-02-11T00:43:50.442Z,1.72
2023-02-11T00:46:17.115Z,1.69
2023-02-11T00:48:43.867Z,1.73
2023-02-11T00:51:10.866Z,1.59
2023-02-11T00:53:38.045Z,1.71
2023-02-11T00:56:05.725Z,1.63
2023-02-11T00:58:32.565Z,1.60
2023-02-11T01:00:59.183Z,1.54
2023-02-11T01:03:26.165Z,1.67
2023-02-11T01:05:53.104Z,1.58
2023-02-11T01:08:19.986Z,1.63
2023-02-11T01:11:01.480Z,1.51
2023-02-11T01:13:32.767Z,1.38
2023-02-11T01:15:59.932Z,1.23
2023-02-11T01:18:27.297Z,1.18
2023-02-11T01:20:54.426Z,1.28
2023-02-11T01:23:21.572Z,1.40
2023-02-11T01:25:48.981Z,1.53
2023-02-11T01:28:27.714Z,1.58
2023-02-11T01:30:55.830Z,1.61
2023-02-11T01:33:23.906Z,1.55
2023-02-11T01:35:50.872Z,1.46
2023-02-11T01:38:22.033Z,1.43
2023-02-11T01:40:57.791Z,1.56
2023-02-11T01:43:26.932Z,1.64
2023-02-11T01:46:00.467Z,1.80
2023-02-11T01:48:36.266Z,1.74
2023-02-11T01:51:26.979Z,1.67
2023-02-11T01:54:14.830Z,1.70
2023-02-11T01:57:07.617Z,1.60
2023-02-11T01:59:45.872Z,1.60
2023-02-11T02:02:17.750Z,1.78
2023-02-11T02:05:04.643Z,1.87
2023-02-11T02:07:47.162Z,1.96
2023-02-11T02:10:21.013Z,2.11
2023-02-11T02:12:47.549Z,2.11
2023-02-11T02:15:39.060Z,2.18
2023-02-11T02:19:16.281Z,2.27
2023-02-11T02:21:48.363Z,2.24
2023-02-11T02:24:56.540Z,2.09
2023-02-11T02:27:27.503Z,1.94
2023-02-11T02:30:53.210Z,2.16
2023-02-11T02:33:49.924Z,1.97
2023-02-11T02:36:47.723Z,1.96
2023-02-11T02:39:33.753Z,1.96
2023-02-11T02:42:01.831Z,1.87
2023-02-11T02:44:29.919Z,1.93
2023-02-11T02:46:56.711Z,2.09
2023-02-11T02:49:23.538Z,2.23
2023-02-11T02:52:05.997Z,2.30
2023-02-11T02:55:11.455Z,2.28
2023-02-11T02:58:19.492Z,1.99
2023-02-11T03:01:34.628Z,1.80
2023-02-11T03:04:30.900Z,1.88
2023-02-11T03:07:20.747Z,1.99
2023-02-11T03:10:00.435Z,1.99
2023-02-11T03:12:32.404Z,1.88
2023-02-11T03:15:02.377Z,2.02
2023-02-11T03:17:34.940Z,2.12
2023-02-11T03:20:05.651Z,2.22
2023-02-11T03:22:49.995Z,2.16
2023-02-11T03:25:17.400Z,2.11
2023-02-11T03:27:54.770Z,2.07
2023-02-11T03:30:39.757Z,1.97
2023-02-11T03:33:23.136Z,1.89
2023-02-11T03:36:03.373Z,1.89
2023-02-11T03:38:41.166Z,1.84
2023-02-11T03:41:12.516Z,1.90
2023-02-11T03:43:47.279Z,1.99
2023-02-11T03:46:18.364Z,1.96
2023-02-11T03:48:52.373Z,2.00
2023-02-11T03:51:27.428Z,2.14
2023-02-11T03:53:59.502Z,2.20
2023-02-11T03:56:36.598Z,2.23
2023-02-11T03:59:03.208Z,2.31
2023-02-11T04:01:29.731Z,2.25
2023-02-11T04:03:56.229Z,2.22
2023-02-11T04:06:23.002Z,2.31
2023-02-11T04:08:49.505Z,2.35
2023-02-11T04:11:15.972Z,2.47
2023-02-11T04:13:42.421Z,2.45
2023-02-11T04:16:08.922Z,2.49
2023-02-11T04:18:35.373Z,2.50
2023-02-11T04:21:01.911Z,2.32
2023-02-11T04:23:28.470Z,2.37
2023-02-11T04:25:54.909Z,2.47
2023-02-11T04:28:21.755Z,2.45
2023-02-11T04:30:51.445Z,2.50
2023-02-11T04:33:18.245Z,2.53
2023-02-11T04:35:50.909Z,2.54
2023-02-11T04:38:17.881Z,2.50
2023-02-11T04:40:44.382Z,2.47
2023-02-11T04:43:10.910Z,2.52
2023-02-11T04:45:37.508Z,2.52
2023-02-11T04:48:04.509Z,2.65
2023-02-11T04:50:31.040Z,2.69
2023-02-11T04:52:57.575Z,2.56
2023-02-11T04:55:24.219Z,2.53
2023-02-11T04:57:50.741Z,2.54
2023-02-11T05:00:17.586Z,2.45
2023-02-11T05:02:44.198Z,2.43
2023-02-11T05:05:10.707Z,2.49
2023-02-11T05:07:42.494Z,2.46
2023-02-11T05:10:09.244Z,2.47
2023-02-11T05:12:35.680Z,2.46
2023-02-11T05:15:02.173Z,2.51
2023-02-11T05:17:28.636Z,2.63
2023-02-11T05:19:55.117Z,2.72
2023-02-11T05:22:22.093Z,2.76
2023-02-11T05:24:50.114Z,2.78
2023-02-11T05:27:16.683Z,2.87
2023-02-11T05:29:43.187Z,2.94
2023-02-11T05:32:09.651Z,2.93
2023-02-11T05:34:36.845Z,2.93
2023-02-11T05:37:03.520Z,2.88
2023-02-11T05:39:30.048Z,2.88
2023-02-11T05:41:56.610Z,2.86
2023-02-11T05:44:23.255Z,2.79
2023-02-11T05:46:49.764Z,2.73
2023-02-11T05:49:17.885Z,2.73
2023-02-11T05:51:44.385Z,2.73
2023-02-11T05:54:10.984Z,2.73
2023-02-11T05:56:37.539Z,2.65
2023-02-11T05:59:04.114Z,2.71
2023-02-11T06:01:30.693Z,2.73
2023-02-11T06:03:57.217Z,2.71
2023-02-11T06:06:25.165Z,2.69
2023-02-11T06:08:52.028Z,2.63
2023-02-11T06:11:18.799Z,2.74
2023-02-11T06:13:45.715Z,2.80
2023-02-11T06:16:12.276Z,2.87
2023-02-11T06:18:38.781Z,2.83
2023-02-11T06:21:14.881Z,2.80
2023-02-11T06:23:43.633Z,2.87
2023-02-11T06:26:19.904Z,2.85
2023-02-11T06:28:46.812Z,2.84
2023-02-11T06:31:14.342Z,2.88
2023-02-11T06:33:41.295Z,2.88
2023-02-11T06:36:20.554Z,2.85
2023-02-11T06:38:47.836Z,2.74
2023-02-11T06:41:17.214Z,2.82
2023-02-11T06:43:44.390Z,2.82
2023-02-11T06:46:11.006Z,2.70
2023-02-11T06:48:37.745Z,2.70
2023-02-11T06:51:07.872Z,2.74
2023-02-11T06:53:44.256Z,2.84
2023-02-11T06:56:15.196Z,2.95
2023-02-11T06:58:42.316Z,3.01
2023-02-11T07:01:13.222Z,3.09
2023-02-11T07:03:45.987Z,2.93
2023-02-11T07:06:17.994Z,2.84
2023-02-11T07:08:45.946Z,2.95
2023-02-11T07:11:19.417Z,3.05
2023-02-11T07:13:47.147Z,3.17
2023-02-11T07:16:19.837Z,3.11
2023-02-11T07:18:47.907Z,3.04
2023-02-11T07:21:18.933Z,2.97
2023-02-11T07:23:46.502Z,3.00
2023-02-11T07:26:16.876Z,2.88
2023-02-11T07:28:44.527Z,2.95
2023-02-11T07:31:18.480Z,2.92
2023-02-11T07:33:45.955Z,3.04
2023-02-11T07:36:15.320Z,3.09
2023-02-11T07:38:42.708Z,3.08
2023-02-11T07:41:13.987Z,3.12
2023-02-11T07:43:41.996Z,3.29
2023-02-11T07:46:13.509Z,3.29
2023-02-11T07:48:40.268Z,3.26
2023-02-11T07:51:17.770Z,3.16
2023-02-11T07:53:45.279Z,3.21
2023-02-11T07:56:14.137Z,3.04
2023-02-11T07:58:42.957Z,3.05
2023-02-11T08:01:14.312Z,3.17
2023-02-11T08:03:42.824Z,3.16
2023-02-11T08:06:14.847Z,3.16
2023-02-11T08:08:42.472Z,3.22
2023-02-11T08:11:15.389Z,3.29
2023-02-11T08:13:42.049Z,3.12
2023-02-11T08:16:09.616Z,3.08
2023-02-11T08:18:36.800Z,2.96
2023-02-11T08:21:08.880Z,2.89
2023-02-11T08:23:41.347Z,2.90
2023-02-11T08:26:14.548Z,2.88
2023-02-11T08:28:44.578Z,3.07
2023-02-11T08:31:17.266Z,3.16
2023-02-11T08:33:44.551Z,3.05
2023-02-11T08:36:20.806Z,3.01
2023-02-11T08:38:47.580Z,2.96
2023-02-11T08:41:15.061Z,3.02
2023-02-11T08:43:43.521Z,3.10
2023-02-11T08:46:15.705Z,3.03
2023-02-11T08:48:43.561Z,3.07
2023-02-11T08:51:15.586Z,3.13
2023-02-11T08:53:42.392Z,3.16
2023-02-11T08:56:13.358Z,3.16
2023-02-11T08:58:40.558Z,3.06
2023-02-11T09:01:18.286Z,3.00
2023-02-11T09:03:44.992Z,3.01
2023-02-11T09:06:13.909Z,3.04
2023-02-11T09:08:47.000Z,3.15
2023-02-11T09:11:13.860Z,3.13
2023-02-11T09:13:43.272Z,3.07
2023-02-11T09:16:18.519Z,3.03
2023-02-11T09:18:45.653Z,3.02
2023-02-11T09:21:13.383Z,3.12
2023-02-11T09:23:43.479Z,3.23
2023-02-11T09:26:16.053Z,3.26
2023-02-11T09:28:42.881Z,3.23
2023-02-11T09:31:17.434Z,3.22
2023-02-11T09:33:47.977Z,3.12
2023-02-11T09:36:21.795Z,3.08
2023-02-11T09:38:49.146Z,3.25
2023-02-11T09:41:54.336Z,3.16
2023-02-11T09:44:25.618Z,3.28
2023-02-11T09:47:30.515Z,3.18
2023-02-11T09:50:04.680Z,3.21
2023-02-11T09:52:44.964Z,3.25
2023-02-11T09:55:28.443Z,3.23
2023-02-11T09:57:56.735Z,3.33
2023-02-11T10:00:36.761Z,3.31
2023-02-11T10:03:30.878Z,3.50
2023-02-11T10:06:13.413Z,3.53
2023-02-11T10:08:50.996Z,3.51
2023-02-11T10:11:49.502Z,3.50
2023-02-11T10:14:21.745Z,3.48
2023-02-11T10:17:13.172Z,3.57
2023-02-11T10:20:03.574Z,3.34
2023-02-11T10:22:43.079Z,3.32
2023-02-11T10:25:33.547Z,3.30
2023-02-11T10:28:10.422Z,3.37
2023-02-11T10:30:59.739Z,3.43
2023-02-11T10:33:47.444Z,3.46
2023-02-11T10:36:17.717Z,3.70
2023-02-11T10:38:44.691Z,3.98
2023-02-11T10:41:22.549Z,4.12
2023-02-11T10:43:50.838Z,4.22
2023-02-11T10:46:31.879Z,4.25
2023-02-11T10:48:58.507Z,4.39
2023-02-11T10:51:33.577Z,4.44
2023-02-11T10:54:11.956Z,4.41
2023-02-11T10:56:52.807Z,4.50
2023-02-11T10:59:40.011Z,4.43
2023-02-11T11:02:34.710Z,4.11
2023-02-11T11:05:23.690Z,4.19
2023-02-11T11:08:01.664Z,4.32
2023-02-11T11:10:43.178Z,4.39
2023-02-11T11:13:35.424Z,4.41
2023-02-11T11:16:29.383Z,4.55
2023-02-11T11:19:08.187Z,4.45
2023-02-11T11:21:42.105Z,4.45
2023-02-11T11:24:40.586Z,4.44
2023-02-11T11:27:16.630Z,4.46
2023-02-11T11:29:51.470Z,4.40
2023-02-11T11:32:27.959Z,4.42
2023-02-11T11:35:05.529Z,4.51
2023-02-11T11:37:36.403Z,4.65
2023-02-11T11:40:15.000Z,4.61
2023-02-11T11:42:42.021Z,4.74
2023-02-11T11:45:20.320Z,4.83
2023-02-11T11:48:03.093Z,4.77
2023-02-11T11:50:43.312Z,4.85
2023-02-11T11:53:40.676Z,4.87
2023-02-11T11:56:16.646Z,4.73
2023-02-11T11:58:46.645Z,4.69
2023-02-11T12:01:36.509Z,4.63
2023-02-11T12:04:38.439Z,4.57
2023-02-11T12:07:31.502Z,4.49
2023-02-11T12:10:18.645Z,4.57
2023-02-11T12:12:56.967Z,4.34
2023-02-11T12:15:45.183Z,4.48
2023-02-11T12:18:44.338Z,4.38
2023-02-11T12:21:56.269Z,4.39
2023-02-11T12:25:09.606Z,4.50
2023-02-11T12:27:47.584Z,4.49
2023-02-11T12:30:20.613Z,4.50
2023-02-11T12:33:11.669Z,4.44
2023-02-11T12:36:06.806Z,4.47
2023-02-11T12:39:00.455Z,4.42
2023-02-11T12:42:25.278Z,4.50
2023-02-11T12:45:12.873Z,4.53
2023-02-11T12:48:13.382Z,4.47
2023-02-11T12:51:14.758Z,4.44
2023-02-11T12:53:58.755Z,4.46
2023-02-11T12:57:06.680Z,4.42
2023-02-11T12:59:49.808Z,4.29
2023-02-11T13:02:28.610Z,4.50
2023-02-11T13:05:04.018Z,4.57
2023-02-11T13:07:45.635Z,4.59
2023-02-11T13:10:17.888Z,4.67
2023-02-11T13:13:09.483Z,4.68
2023-02-11T13:15:37.091Z,4.63
2023-02-11T13:18:44.040Z,4.58
2023-02-11T13:21:21.702Z,4.57
2023-02-11T13:24:15.699Z,4.66
2023-02-11T13:27:00.195Z,4.81
2023-02-11T13:30:21.056Z,4.84
2023-02-11T13:32:56.564Z,4.79
2023-02-11T13:35:40.793Z,4.69
2023-02-11T13:38:25.501Z,4.67
2023-02-11T13:41:05.114Z,4.56
2023-02-11T13:43:36.340Z,4.67
2023-02-11T13:46:07.087Z,4.76
2023-02-11T13:48:40.025Z,4.76
2023-02-11T13:51:15.428Z,4.77
2023-02-11T13:53:57.378Z,4.73
2023-02-11T13:56:31.974Z,4.62
2023-02-11T13:59:06.377Z,4.78
2023-02-11T14:02:06.811Z,4.80
2023-02-11T14:04:52.644Z,4.76
2023-02-11T14:07:53.277Z,4.72
2023-02-11T14:10:41.352Z,4.74
2023-02-11T14:13:25.796Z,4.70
2023-02-11T14:16:17.084Z,4.73
2023-02-11T14:18:55.916Z,4.83
2023-02-11T14:21:32.232Z,4.89
2023-02-11T14:24:01.440Z,4.78
2023-02-11T14:26:47.195Z,4.78
2023-02-11T14:29:44.477Z,4.69
2023-02-11T14:32:43.860Z,4.85
2023-02-11T14:35:22.971Z,4.89
2023-02-11T14:38:15.756Z,4.93
2023-02-11T14:40:54.055Z,5.02
2023-02-11T14:43:29.538Z,4.96
2023-02-11T14:45:58.825Z,4.92
2023-02-11T14:48:37.932Z,4.99
2023-02-11T14:51:13.743Z,4.95
2023-02-11T14:53:48.959Z,4.81
2023-02-11T14:56:26.411Z,4.76
2023-02-11T14:58:55.266Z,4.77
2023-02-11T15:01:36.318Z,4.86
2023-02-11T15:04:06.348Z,4.80
2023-02-11T15:06:47.465Z,4.68
2023-02-11T15:09:19.856Z,4.65
2023-02-11T15:11:49.709Z,4.67
2023-02-11T15:14:26.409Z,4.73
2023-02-11T15:16:56.242Z,4.43
2023-02-11T15:19:47.309Z,4.49
2023-02-11T15:22:29.272Z,4.59
2023-02-11T15:25:19.380Z,4.70
2023-02-11T15:27:48.762Z,4.71
2023-02-11T15:30:21.045Z,4.63
2023-02-11T15:32:57.898Z,4.62
2023-02-11T15:35:36.567Z,4.70
2023-02-11T15:38:04.767Z,4.89
2023-02-11T15:40:35.681Z,4.97
2023-02-11T15:43:07.584Z,4.89
2023-02-11T15:45:57.082Z,4.81
2023-02-11T15:48:37.140Z,4.73
2023-02-11T15:51:20.615Z,4.69
2023-02-11T15:53:56.666Z,4.84
2023-02-11T15:56:29.737Z,4.93
2023-02-11T15:59:00.627Z,4.84
2023-02-11T16:01:37.023Z,4.85
2023-02-11T16:04:05.458Z,4.98
2023-02-11T16:06:41.608Z,4.95
2023-02-11T16:09:11.069Z,4.80
2023-02-11T16:11:58.028Z,4.83
2023-02-11T16:14:31.421Z,4.94
2023-02-11T16:17:26.310Z,5.01
2023-02-11T16:19:54.150Z,5.10
2023-02-11T16:22:30.341Z,4.97
2023-02-11T16:24:59.708Z,4.93
2023-02-11T16:27:40.230Z,5.02
2023-02-11T16:30:40.365Z,5.09
2023-02-11T16:33:10.767Z,5.10
2023-02-11T16:35:37.568Z,5.00
2023-02-11T16:38:04.066Z,4.98
2023-02-11T16:40:30.608Z,5.08
2023-02-11T16:42:57.044Z,5.13
2023-02-11T16:45:23.577Z,5.10
2023-02-11T16:47:50.188Z,5.08
2023-02-11T16:50:24.177Z,5.02
2023-02-11T16:52:52.352Z,5.09
2023-02-11T16:55:25.280Z,5.16
2023-02-11T16:57:51.875Z,5.21
2023-02-11T17:00:19.055Z,5.28
2023-02-11T17:02:45.833Z,5.34
2023-02-11T17:05:20.382Z,5.33
2023-02-11T17:07:46.888Z,5.25
2023-02-11T17:10:20.572Z,5.25
2023-02-11T17:12:48.234Z,5.34
2023-02-11T17:15:14.861Z,5.35
2023-02-11T17:17:41.552Z,5.27
2023-02-11T17:20:11.078Z,5.13
2023-02-11T17:22:37.602Z,4.97
2023-02-11T17:25:04.276Z,4.82
2023-02-11T17:27:30.790Z,4.93
2023-02-11T17:29:57.297Z,5.04
2023-02-11T17:32:23.975Z,5.05
2023-02-11T17:34:53.634Z,4.94
2023-02-11T17:37:20.228Z,4.92
2023-02-11T17:39:49.142Z,4.88
2023-02-11T17:42:15.777Z,4.93
2023-02-11T17:44:44.241Z,5.06
2023-02-11T17:47:11.920Z,5.16
2023-02-11T17:49:39.660Z,5.07
2023-02-11T17:52:06.212Z,5.02
2023-02-11T17:54:32.728Z,5.01
2023-02-11T17:56:59.180Z,4.89
2023-02-11T17:59:26.452Z,4.81
2023-02-11T18:01:52.996Z,4.82
2023-02-11T18:04:20.328Z,4.81
2023-02-11T18:06:47.372Z,4.83
2023-02-11T18:09:13.923Z,4.84
2023-02-11T18:11:40.990Z,4.92
2023-02-11T18:14:08.526Z,4.89
2023-02-11T18:16:38.827Z,4.97
2023-02-11T18:19:07.512Z,5.08
2023-02-11T18:21:34.146Z,5.17
2023-02-11T18:24:07.364Z,5.27
2023-02-11T18:26:35.102Z,5.29
2023-02-11T18:29:03.732Z,5.12
2023-02-11T18:31:31.755Z,4.92
2023-02-11T18:33:58.371Z,4.85
2023-02-11T18:36:24.880Z,4.91
2023-02-11T18:38:53.238Z,5.05
2023-02-11T18:41:20.886Z,5.17
2023-02-11T18:43:47.405Z,5.27
2023-02-11T18:46:16.062Z,5.37
2023-02-11T18:48:44.749Z,5.37
2023-02-11T18:51:18.673Z,5.31
2023-02-11T18:53:45.673Z,5.33
2023-02-11T18:56:20.769Z,5.21
2023-02-11T18:58:49.285Z,5.12
2023-02-11T19:01:24.312Z,5.17
2023-02-11T19:03:51.482Z,5.26
2023-02-11T19:06:32.450Z,5.28
2023-02-11T19:09:04.021Z,5.33
2023-02-11T19:11:47.839Z,5.30
2023-02-11T19:14:27.575Z,5.02
2023-02-11T19:17:03.209Z,4.83
2023-02-11T19:19:33.764Z,4.76
2023-02-11T19:22:02.208Z,4.88
2023-02-11T19:24:30.156Z,4.96
2023-02-11T19:27:00.298Z,5.07
2023-02-11T19:29:28.396Z,5.18
2023-02-11T19:31:55.396Z,5.19
2023-02-11T19:34:22.335Z,5.12
2023-02-11T19:36:49.979Z,5.12
2023-02-11T19:39:18.332Z,5.18
2023-02-11T19:41:44.864Z,5.17
2023-02-11T19:44:14.325Z,5.16
2023-02-11T19:46:41.092Z,5.13
2023-02-11T19:49:09.884Z,5.20
2023-02-11T19:51:39.143Z,5.25
2023-02-11T19:54:07.414Z,5.22
2023-02-11T19:56:34.290Z,5.21
2023-02-11T19:59:03.069Z,5.22
2023-02-11T20:01:32.060Z,5.27
2023-02-11T20:03:58.673Z,5.38
2023-02-11T20:06:32.008Z,5.35
2023-02-11T20:09:13.449Z,5.37
2023-02-11T20:11:43.180Z,5.33
2023-02-11T20:14:13.019Z,5.34
2023-02-11T20:16:48.032Z,5.38
2023-02-11T20:19:21.872Z,5.34
2023-02-11T20:21:52.484Z,5.42
2023-02-11T20:24:20.159Z,5.45
2023-02-11T20:26:48.322Z,5.38
2023-02-11T20:29:18.888Z,5.27
2023-02-11T20:31:45.893Z,5.18
2023-02-11T20:34:12.597Z,5.06
2023-02-11T20:36:40.405Z,4.91
2023-02-11T20:39:08.034Z,4.96
2023-02-11T20:41:39.085Z,5.10
2023-02-11T20:44:10.742Z,5.17
2023-02-11T20:46:41.527Z,5.11
2023-02-11T20:49:12.031Z,5.14
2023-02-11T20:51:39.488Z,5.03
2023-02-11T20:54:07.567Z,5.14
2023-02-11T20:56:36.994Z,5.28
2023-02-11T20:59:05.703Z,5.29
2023-02-11T21:01:36.983Z,5.26
2023-02-11T21:04:14.377Z,5.00
2023-02-11T21:06:48.714Z,4.99
2023-02-11T21:09:20.034Z,5.03
2023-02-11T21:11:48.449Z,5.15
2023-02-11T21:14:15.347Z,5.17
2023-02-11T21:16:42.177Z,5.26
2023-02-11T21:19:08.738Z,5.23
2023-02-11T21:21:37.982Z,5.28
2023-02-11T21:24:06.896Z,5.29
2023-02-11T21:26:35.335Z,5.21
2023-02-11T21:29:07.346Z,5.18
2023-02-11T21:31:35.993Z,5.21
2023-02-11T21:34:03.196Z,5.31
2023-02-11T21:36:30.987Z,5.44
2023-02-11T21:38:57.843Z,5.52
2023-02-11T21:41:24.833Z,5.56
2023-02-11T21:43:52.407Z,5.55
2023-02-11T21:46:20.568Z,5.43
2023-02-11T21:48:47.954Z,5.22
2023-02-11T21:51:26.250Z,5.07
2023-02-11T21:54:01.505Z,5.14
2023-02-11T21:56:30.654Z,5.29
2023-02-11T21:58:59.605Z,5.48
2023-02-11T22:01:30.489Z,5.50
2023-02-11T22:03:58.440Z,5.45
2023-02-11T22:06:32.982Z,5.43
2023-02-11T22:09:05.888Z,5.44
2023-02-11T22:11:32.541Z,5.35
2023-02-11T22:13:59.294Z,5.29
2023-02-11T22:16:28.144Z,5.35
2023-02-11T22:18:58.433Z,5.46
2023-02-11T22:21:28.221Z,5.53
2023-02-11T22:23:55.822Z,5.53
2023-02-11T22:26:26.296Z,5.55
2023-02-11T22:28:53.817Z,5.46
2023-02-11T22:31:28.274Z,5.32
2023-02-11T22:33:55.275Z,5.21
2023-02-11T22:36:26.436Z,5.10
2023-02-11T22:38:59.435Z,5.21
2023-02-11T22:41:26.001Z,5.36
2023-02-11T22:43:52.487Z,5.44
2023-02-11T22:46:19.982Z,5.54
2023-02-11T22:48:48.498Z,5.57
2023-02-11T22:51:19.619Z,5.57
2023-02-11T22:54:07.122Z,5.38
2023-02-11T22:56:35.231Z,5.33
2023-02-11T22:59:06.229Z,5.21
2023-02-11T23:01:33.784Z,5.27
2023-02-11T23:04:04.321Z,5.28
2023-02-11T23:06:31.410Z,5.42
2023-02-11T23:08:57.987Z,5.44
2023-02-11T23:11:28.683Z,5.33
2023-02-11T23:13:55.577Z,5.22
2023-02-11T23:16:30.692Z,5.27
2023-02-11T23:19:01.128Z,5.28
2023-02-11T23:21:31.914Z,5.32
2023-02-11T23:24:10.923Z,5.38
2023-02-11T23:26:40.695Z,5.49
2023-02-11T23:29:07.724Z,5.56
2023-02-11T23:31:39.744Z,5.52
2023-02-11T23:34:08.241Z,5.59
2023-02-11T23:36:35.471Z,5.58
2023-02-11T23:39:02.820Z,5.62
2023-02-11T23:41:29.521Z,5.64
2023-02-11T23:43:58.961Z,5.65
2023-02-11T23:46:27.530Z,5.66
2023-02-11T23:48:54.424Z,5.71
2023-02-11T23:51:21.750Z,5.68
2023-02-11T23:53:53.658Z,5.67
2023-02-11T23:56:27.668Z,5.62
2023-02-11T23:58:57.735Z,5.61
